createdAt,value
2023-03-15T00:02:28.752Z,9.25
2023-03-15T00:05:13.982Z,8.26
2023-03-15T00:07:59.719Z,8.76
2023-03-15T00:10:47.195Z,9.29
2023-03-15T00:13:33.531Z,8.75
2023-03-15T00:16:19.131Z,8.05
2023-03-15T00:19:04.574Z,9.22
2023-03-15T00:21:49.896Z,8.00
2023-03-15T00:24:35.523Z,9.23
2023-03-15T00:27:20.860Z,8.96
2023-03-15T00:30:07.091Z,8.88
2023-03-15T00:32:56.233Z,9.15
2023-03-15T00:35:43.859Z,9.40
2023-03-15T00:38:29.572Z,8.47
2023-03-15T00:41:17.523Z,8.62
2023-03-15T00:44:04.245Z,9.48
2023-03-15T00:46:50.708Z,9.01
2023-03-15T00:49:36.014Z,8.29
2023-03-15T00:52:22.078Z,9.48
2023-03-15T00:55:13.942Z,8.55
2023-03-15T00:57:59.443Z,9.47
2023-03-15T01:00:46.836Z,8.65
2023-03-15T01:03:32.223Z,9.25
2023-03-15T01:06:20.682Z,8.33
2023-03-15T01:09:06.552Z,9.53
2023-03-15T01:11:52.027Z,9.50
2023-03-15T01:14:39.078Z,9.32
2023-03-15T01:17:24.531Z,8.28
2023-03-15T01:20:13.221Z,9.35
2023-03-15T01:22:59.517Z,9.02
2023-03-15T01:25:45.083Z,9.16
2023-03-15T01:28:30.669Z,8.83
2023-03-15T01:31:25.680Z,8.95
2023-03-15T01:34:11.195Z,9.17
2023-03-15T01:36:56.598Z,9.20
2023-03-15T01:39:48.895Z,9.14
2023-03-15T01:42:54.055Z,7.97
2023-03-15T01:46:04.580Z,9.16
2023-03-15T01:49:02.356Z,9.16
2023-03-15T01:52:06.977Z,7.97
2023-03-15T01:55:19.545Z,9.13
2023-03-15T01:58:28.810Z,7.88
2023-03-15T02:01:16.372Z,9.02
2023-03-15T02:04:11.774Z,9.06
2023-03-15T02:07:03.688Z,8.72
2023-03-15T02:10:01.471Z,9.05
2023-03-15T02:12:53.102Z,8.16
2023-03-15T02:15:39.327Z,9.02
2023-03-15T02:18:26.261Z,9.18
2023-03-15T02:21:21.713Z,8.03
2023-03-15T02:24:12.990Z,9.22
2023-03-15T02:26:58.826Z,9.18
2023-03-15T02:29:44.081Z,8.83
2023-03-15T02:32:31.523Z,7.98
2023-03-15T02:35:29.638Z,8.98
2023-03-15T02:38:15.430Z,8.96
2023-03-15T02:41:03.768Z,8.63
2023-03-15T02:43:53.351Z,9.23
2023-03-15T02:46:38.743Z,9.14
2023-03-15T02:49:29.981Z,8.24
2023-03-15T02:52:15.629Z,8.07
2023-03-15T02:55:02.245Z,9.16
2023-03-15T02:57:48.285Z,9.09
2023-03-15T03:00:33.933Z,9.16
2023-03-15T03:03:19.284Z,7.98
2023-03-15T03:06:05.130Z,9.16
2023-03-15T03:08:51.120Z,8.91
2023-03-15T03:11:39.046Z,8.62
2023-03-15T03:14:24.768Z,8.29
2023-03-15T03:17:10.290Z,7.92
2023-03-15T03:19:57.323Z,9.16
2023-03-15T03:22:50.421Z,9.20
2023-03-15T03:25:37.577Z,8.25
2023-03-15T03:28:27.909Z,8.26
2023-03-15T03:31:35.474Z,8.91
2023-03-15T03:34:22.437Z,9.17
2023-03-15T03:37:09.190Z,7.91
2023-03-15T03:40:09.293Z,7.86
2023-03-15T03:42:55.301Z,7.86
2023-03-15T03:45:41.756Z,9.00
2023-03-15T03:48:28.935Z,8.52
2023-03-15T03:51:14.593Z,8.85
2023-03-15T03:54:00.116Z,8.51
2023-03-15T03:56:45.537Z,7.76
2023-03-15T03:59:31.500Z,7.71
2023-03-15T04:02:22.566Z,8.62
2023-03-15T04:05:17.040Z,8.28
2023-03-15T04:08:03.477Z,8.46
2023-03-15T04:10:56.961Z,7.42
2023-03-15T04:13:45.533Z,8.37
2023-03-15T04:16:31.260Z,7.10
2023-03-15T04:19:20.573Z,7.01
2023-03-15T04:22:06.683Z,6.99
2023-03-15T04:25:05.666Z,8.09
2023-03-15T04:28:12.812Z,8.17
2023-03-15T04:31:14.978Z,8.17
2023-03-15T04:34:17.715Z,7.93
2023-03-15T04:37:35.588Z,8.14
2023-03-15T04:40:54.923Z,8.25
2023-03-15T04:43:58.685Z,8.11
2023-03-15T04:47:06.686Z,8.34
2023-03-15T04:50:10.581Z,7.37
2023-03-15T04:53:18.912Z,7.26
2023-03-15T04:56:25.112Z,7.13
2023-03-15T04:59:26.802Z,7.91
2023-03-15T05:02:31.159Z,7.09
2023-03-15T05:05:25.546Z,7.84
2023-03-15T05:08:10.965Z,7.89
2023-03-15T05:11:12.440Z,8.21
2023-03-15T05:14:15.460Z,7.04
2023-03-15T05:17:20.049Z,8.26
2023-03-15T05:20:26.022Z,7.34
2023-03-15T05:23:30.178Z,7.09
2023-03-15T05:26:28.579Z,7.04
2023-03-15T05:29:51.393Z,7.02
2023-03-15T05:33:16.027Z,7.53
2023-03-15T05:36:08.552Z,8.10
2023-03-15T05:39:18.508Z,8.04
2023-03-15T05:42:27.506Z,7.80
2023-03-15T05:45:37.423Z,8.05
2023-03-15T05:48:22.721Z,7.86
2023-03-15T05:51:15.192Z,6.66
2023-03-15T05:54:23.136Z,7.95
2023-03-15T05:57:28.879Z,7.61
2023-03-15T06:00:39.202Z,6.68
2023-03-15T06:03:34.085Z,7.59
2023-03-15T06:06:31.524Z,7.04
2023-03-15T06:09:18.095Z,7.91
2023-03-15T06:12:05.277Z,7.91
2023-03-15T06:14:50.669Z,6.95
2023-03-15T06:17:36.537Z,6.78
2023-03-15T06:20:21.972Z,6.80
2023-03-15T06:23:07.813Z,7.84
2023-03-15T06:26:15.122Z,7.85
2023-03-15T06:29:01.155Z,6.84
2023-03-15T06:31:48.094Z,7.55
2023-03-15T06:34:34.016Z,7.32
2023-03-15T06:37:29.024Z,7.25
2023-03-15T06:40:20.415Z,6.11
2023-03-15T06:43:07.515Z,6.91
2023-03-15T06:45:55.978Z,6.14
2023-03-15T06:48:41.644Z,6.19
2023-03-15T06:51:29.563Z,7.29
2023-03-15T06:54:14.945Z,6.33
2023-03-15T06:57:00.902Z,7.16
2023-03-15T06:59:46.196Z,6.32
2023-03-15T07:02:37.107Z,6.82
2023-03-15T07:05:22.561Z,7.35
2023-03-15T07:08:08.067Z,7.06
2023-03-15T07:10:54.003Z,6.30
2023-03-15T07:13:39.323Z,6.33
2023-03-15T07:16:25.885Z,6.31
2023-03-15T07:19:11.478Z,6.40
2023-03-15T07:21:56.843Z,7.52
2023-03-15T07:24:42.222Z,7.33
2023-03-15T07:27:27.660Z,6.59
2023-03-15T07:30:13.589Z,6.79
2023-03-15T07:32:59.079Z,7.78
2023-03-15T07:35:45.548Z,7.63
2023-03-15T07:38:31.209Z,7.44
2023-03-15T07:41:17.589Z,8.07
2023-03-15T07:44:24.133Z,7.89
2023-03-15T07:47:09.872Z,7.34
2023-03-15T07:49:55.691Z,8.05
2023-03-15T07:52:41.088Z,7.93
2023-03-15T07:55:26.721Z,7.79
2023-03-15T07:58:12.055Z,7.08
2023-03-15T08:00:58.281Z,8.16
2023-03-15T08:03:43.916Z,6.95
2023-03-15T08:06:29.974Z,8.21
2023-03-15T08:09:16.647Z,8.22
2023-03-15T08:12:02.667Z,8.29
2023-03-15T08:14:48.451Z,7.56
2023-03-15T08:17:37.287Z,8.41
2023-03-15T08:20:23.069Z,8.46
2023-03-15T08:23:09.270Z,8.49
2023-03-15T08:25:56.976Z,8.46
2023-03-15T08:28:44.543Z,8.28
2023-03-15T08:31:33.459Z,7.56
2023-03-15T08:34:19.112Z,7.90
2023-03-15T08:37:04.780Z,7.68
2023-03-15T08:39:57.912Z,7.48
2023-03-15T08:42:43.614Z,6.90
2023-03-15T08:45:29.250Z,6.51
2023-03-15T08:48:15.001Z,6.36
2023-03-15T08:51:05.421Z,6.46
2023-03-15T08:53:52.923Z,6.28
2023-03-15T08:56:39.989Z,6.13
2023-03-15T08:59:31.679Z,4.65
2023-03-15T09:02:18.517Z,4.98
2023-03-15T09:05:07.233Z,4.92
2023-03-15T09:07:53.323Z,5.11
2023-03-15T09:10:38.689Z,5.23
2023-03-15T09:13:24.816Z,5.77
2023-03-15T09:16:10.258Z,5.44
2023-03-15T09:18:55.651Z,5.64
2023-03-15T09:21:41.858Z,5.64
2023-03-15T09:24:27.984Z,5.40
2023-03-15T09:27:13.619Z,5.58
2023-03-15T09:29:59.365Z,5.55
2023-03-15T09:32:45.934Z,4.84
2023-03-15T09:35:31.435Z,5.41
2023-03-15T09:38:16.870Z,4.26
2023-03-15T09:41:03.810Z,5.27
2023-03-15T09:43:49.376Z,5.23
2023-03-15T09:46:55.488Z,3.79
2023-03-15T09:50:06.218Z,4.45
2023-03-15T09:52:58.565Z,4.78
2023-03-15T09:55:47.552Z,4.46
2023-03-15T09:58:34.844Z,4.68
2023-03-15T10:01:25.870Z,4.47
2023-03-15T10:04:37.307Z,4.41
2023-03-15T10:07:23.428Z,4.72
2023-03-15T10:10:16.240Z,4.64
2023-03-15T10:13:29.262Z,4.66
2023-03-15T10:16:21.027Z,4.69
2023-03-15T10:19:21.168Z,4.31
2023-03-15T10:22:12.865Z,4.55
2023-03-15T10:25:11.441Z,4.51
2023-03-15T10:28:10.810Z,4.50
2023-03-15T10:31:00.177Z,4.28
2023-03-15T10:33:48.371Z,3.12
2023-03-15T10:36:34.179Z,4.08
2023-03-15T10:39:20.039Z,4.07
2023-03-15T10:42:05.821Z,4.35
2023-03-15T10:44:51.092Z,4.20
2023-03-15T10:47:45.203Z,3.68
2023-03-15T10:50:33.925Z,3.98
2023-03-15T10:53:25.642Z,3.96
2023-03-15T10:56:21.944Z,3.88
2023-03-15T10:59:16.526Z,3.87
2023-03-15T11:02:14.385Z,3.81
2023-03-15T11:05:19.567Z,3.77
2023-03-15T11:08:16.180Z,3.73
2023-03-15T11:11:02.088Z,2.74
2023-03-15T11:14:01.528Z,3.63
2023-03-15T11:16:52.468Z,3.44
2023-03-15T11:19:42.253Z,2.41
2023-03-15T11:22:27.666Z,3.45
2023-03-15T11:25:17.684Z,3.59
2023-03-15T11:28:04.475Z,3.52
2023-03-15T11:30:50.536Z,3.06
2023-03-15T11:33:43.563Z,3.55
2023-03-15T11:36:34.687Z,3.48
2023-03-15T11:39:34.768Z,3.18
2023-03-15T11:42:32.664Z,3.07
2023-03-15T11:45:27.062Z,3.45
2023-03-15T11:48:34.357Z,2.55
2023-03-15T11:51:20.005Z,2.74
2023-03-15T11:54:10.462Z,2.34
2023-03-15T11:57:06.251Z,3.04
2023-03-15T11:59:51.902Z,2.23
2023-03-15T12:02:51.562Z,2.59
2023-03-15T12:06:18.795Z,3.33
2023-03-15T12:09:33.250Z,3.29
2023-03-15T12:12:24.977Z,3.26
2023-03-15T12:15:19.630Z,3.24
2023-03-15T12:18:09.027Z,2.71
2023-03-15T12:21:10.932Z,3.08
2023-03-15T12:24:01.514Z,2.22
2023-03-15T12:26:49.795Z,3.05
2023-03-15T12:29:36.301Z,2.62
2023-03-15T12:32:21.698Z,2.98
2023-03-15T12:35:17.568Z,1.96
2023-03-15T12:38:03.142Z,2.93
2023-03-15T12:40:56.556Z,2.97
2023-03-15T12:43:46.459Z,2.28
2023-03-15T12:46:41.361Z,3.03
2023-03-15T12:49:26.824Z,2.99
2023-03-15T12:52:13.491Z,2.91
2023-03-15T12:55:05.958Z,2.76
2023-03-15T12:57:58.018Z,2.22
2023-03-15T13:00:44.582Z,2.56
2023-03-15T13:03:30.381Z,2.74
2023-03-15T13:06:24.725Z,2.77
2023-03-15T13:09:35.320Z,2.68
2023-03-15T13:12:47.687Z,2.64
2023-03-15T13:16:06.632Z,2.54
2023-03-15T13:19:05.461Z,2.61
2023-03-15T13:22:09.797Z,2.55
2023-03-15T13:24:58.436Z,2.52
2023-03-15T13:27:55.849Z,1.44
2023-03-15T13:30:46.584Z,2.22
2023-03-15T13:33:32.753Z,2.41
2023-03-15T13:36:23.502Z,1.91
2023-03-15T13:39:16.420Z,2.23
2023-03-15T13:42:05.960Z,2.18
2023-03-15T13:45:14.135Z,1.99
2023-03-15T13:48:04.848Z,1.78
2023-03-15T13:50:54.730Z,1.69
2023-03-15T13:53:49.606Z,2.03
2023-03-15T13:56:49.714Z,2.00
2023-03-15T13:59:40.445Z,1.81
2023-03-15T14:02:36.785Z,2.14
2023-03-15T14:05:28.976Z,2.03
2023-03-15T14:08:23.046Z,0.86
2023-03-15T14:11:18.025Z,2.14
2023-03-15T14:14:23.443Z,1.86
2023-03-15T14:17:24.558Z,2.16
2023-03-15T14:20:16.064Z,1.88
2023-03-15T14:23:04.177Z,0.82
2023-03-15T14:26:15.176Z,2.16
2023-03-15T14:29:16.568Z,0.72
2023-03-15T14:32:05.797Z,1.50
2023-03-15T14:35:00.021Z,2.10
2023-03-15T14:37:46.881Z,2.02
2023-03-15T14:40:38.690Z,1.15
2023-03-15T14:43:24.481Z,2.08
2023-03-15T14:46:10.065Z,1.89
2023-03-15T14:48:55.350Z,1.88
2023-03-15T14:51:40.612Z,0.47
2023-03-15T14:54:26.331Z,1.43
2023-03-15T14:57:11.910Z,1.57
2023-03-15T14:59:57.227Z,2.00
2023-03-15T15:02:47.980Z,2.01
2023-03-15T15:05:35.483Z,0.55
2023-03-15T15:08:22.493Z,2.00
2023-03-15T15:11:08.991Z,0.90
2023-03-15T15:13:54.906Z,1.90
2023-03-15T15:16:41.983Z,1.74
2023-03-15T15:19:28.349Z,1.83
2023-03-15T15:22:14.353Z,1.66
2023-03-15T15:25:01.497Z,2.03
2023-03-15T15:27:49.012Z,0.76
2023-03-15T15:30:35.202Z,1.83
2023-03-15T15:33:20.817Z,1.38
2023-03-15T15:36:12.257Z,2.01
2023-03-15T15:38:58.245Z,2.01
2023-03-15T15:41:43.934Z,2.10
2023-03-15T15:44:29.632Z,1.80
2023-03-15T15:47:15.761Z,1.57
2023-03-15T15:50:01.725Z,2.07
2023-03-15T15:52:52.597Z,0.56
2023-03-15T15:55:40.430Z,2.10
2023-03-15T15:58:26.639Z,0.99
2023-03-15T16:01:14.244Z,2.13
2023-03-15T16:04:02.169Z,2.13
2023-03-15T16:06:54.527Z,2.00
2023-03-15T16:09:44.159Z,2.12
2023-03-15T16:12:34.172Z,2.10
2023-03-15T16:15:22.540Z,1.79
2023-03-15T16:18:11.929Z,1.82
2023-03-15T16:20:59.230Z,2.13
2023-03-15T16:23:50.710Z,2.10
2023-03-15T16:26:38.228Z,2.08
2023-03-15T16:29:27.366Z,0.67
2023-03-15T16:32:29.778Z,2.10
2023-03-15T16:35:27.849Z,2.17
2023-03-15T16:38:24.110Z,2.19
2023-03-15T16:41:18.300Z,2.19
2023-03-15T16:44:14.981Z,0.63
2023-03-15T16:47:01.953Z,2.22
2023-03-15T16:49:47.638Z,1.72
2023-03-15T16:52:33.763Z,1.90
2023-03-15T16:55:26.186Z,0.91
2023-03-15T16:58:17.956Z,2.28
2023-03-15T17:01:03.708Z,1.89
2023-03-15T17:03:49.172Z,2.17
2023-03-15T17:06:35.218Z,1.57
2023-03-15T17:09:23.422Z,2.03
2023-03-15T17:12:22.865Z,1.53
2023-03-15T17:15:10.428Z,2.09
2023-03-15T17:17:58.673Z,1.76
2023-03-15T17:20:45.639Z,1.75
2023-03-15T17:23:31.931Z,1.91
2023-03-15T17:26:21.109Z,2.16
2023-03-15T17:29:07.430Z,1.84
2023-03-15T17:31:53.506Z,0.79
2023-03-15T17:34:38.906Z,2.12
2023-03-15T17:37:25.810Z,1.68
2023-03-15T17:40:23.767Z,1.06
2023-03-15T17:43:12.766Z,1.77
2023-03-15T17:45:58.088Z,2.22
2023-03-15T17:48:43.488Z,0.98
2023-03-15T17:51:31.598Z,2.30
2023-03-15T17:54:18.437Z,1.55
2023-03-15T17:57:05.068Z,2.14
2023-03-15T17:59:51.383Z,2.36
2023-03-15T18:02:40.721Z,1.04
2023-03-15T18:05:29.970Z,1.74
2023-03-15T18:08:18.523Z,1.45
2023-03-15T18:11:11.891Z,1.11
2023-03-15T18:13:57.247Z,0.99
2023-03-15T18:16:43.465Z,2.47
2023-03-15T18:19:29.086Z,2.24
2023-03-15T18:22:17.029Z,1.11
2023-03-15T18:25:04.903Z,2.21
2023-03-15T18:27:51.349Z,-0.23
2023-03-15T18:30:37.104Z,1.96
2023-03-15T18:33:22.841Z,2.22
2023-03-15T18:36:08.920Z,2.11
2023-03-15T18:38:55.093Z,2.49
2023-03-15T18:41:40.750Z,2.47
2023-03-15T18:44:26.131Z,2.41
2023-03-15T18:47:11.566Z,2.00
2023-03-15T18:50:04.441Z,1.90
2023-03-15T18:52:55.743Z,1.08
2023-03-15T18:55:40.848Z,1.56
2023-03-15T18:58:27.824Z,0.97
2023-03-15T19:01:13.555Z,1.16
2023-03-15T19:03:59.174Z,0.95
2023-03-15T19:06:44.679Z,2.33
2023-03-15T19:09:30.055Z,0.91
2023-03-15T19:12:15.295Z,2.29
2023-03-15T19:15:01.314Z,1.98
2023-03-15T19:17:48.685Z,2.22
2023-03-15T19:20:34.970Z,1.98
2023-03-15T19:23:21.096Z,2.05
2023-03-15T19:26:07.043Z,0.83
2023-03-15T19:28:52.821Z,2.11
2023-03-15T19:31:38.943Z,0.76
2023-03-15T19:34:25.308Z,1.98
2023-03-15T19:37:10.713Z,2.13
2023-03-15T19:39:56.182Z,0.82
2023-03-15T19:42:42.493Z,0.96
2023-03-15T19:45:28.472Z,1.78
2023-03-15T19:48:16.117Z,0.67
2023-03-15T19:51:02.437Z,1.81
2023-03-15T19:53:48.346Z,0.76
2023-03-15T19:56:33.869Z,0.68
2023-03-15T19:59:19.638Z,1.99
2023-03-15T20:02:06.022Z,1.88
2023-03-15T20:04:51.596Z,1.36
2023-03-15T20:07:37.718Z,1.43
2023-03-15T20:10:23.980Z,0.24
2023-03-15T20:13:10.864Z,1.79
2023-03-15T20:15:57.352Z,0.32
2023-03-15T20:18:42.998Z,0.18
2023-03-15T20:21:29.643Z,1.57
2023-03-15T20:24:15.187Z,1.35
2023-03-15T20:27:00.612Z,1.70
2023-03-15T20:29:46.215Z,0.31
2023-03-15T20:32:32.090Z,1.40
2023-03-15T20:35:17.792Z,1.48
2023-03-15T20:38:06.934Z,1.67
2023-03-15T20:40:56.626Z,0.51
2023-03-15T20:43:42.058Z,1.57
2023-03-15T20:46:27.856Z,0.70
2023-03-15T20:49:14.280Z,1.62
2023-03-15T20:51:59.793Z,0.36
2023-03-15T20:54:45.210Z,0.58
2023-03-15T20:57:31.286Z,0.26
2023-03-15T21:00:20.496Z,1.63
2023-03-15T21:03:10.994Z,1.65
2023-03-15T21:05:57.748Z,0.14
2023-03-15T21:08:43.924Z,0.42
2023-03-15T21:11:30.828Z,1.62
2023-03-15T21:14:16.306Z,1.87
2023-03-15T21:17:01.923Z,1.77
2023-03-15T21:19:47.487Z,1.28
2023-03-15T21:22:32.971Z,1.61
2023-03-15T21:25:18.826Z,1.01
2023-03-15T21:28:04.740Z,2.00
2023-03-15T21:30:52.455Z,1.08
2023-03-15T21:33:38.585Z,1.64
2023-03-15T21:36:23.995Z,1.51
2023-03-15T21:39:10.835Z,1.41
2023-03-15T21:41:56.192Z,1.67
2023-03-15T21:44:41.740Z,1.39
2023-03-15T21:47:27.680Z,0.59
2023-03-15T21:50:13.384Z,1.85
2023-03-15T21:52:58.668Z,1.76
2023-03-15T21:55:46.183Z,0.46
2023-03-15T21:58:31.691Z,1.78
2023-03-15T22:01:17.113Z,0.88
2023-03-15T22:04:02.687Z,0.55
2023-03-15T22:06:48.177Z,0.16
2023-03-15T22:09:33.492Z,1.61
2023-03-15T22:12:18.781Z,1.45
2023-03-15T22:15:06.370Z,1.35
2023-03-15T22:17:51.847Z,1.70
2023-03-15T22:20:38.033Z,0.57
2023-03-15T22:23:24.096Z,0.85
2023-03-15T22:26:09.825Z,0.77
2023-03-15T22:28:56.051Z,0.64
2023-03-15T22:31:41.530Z,1.61
2023-03-15T22:34:27.599Z,0.52
2023-03-15T22:37:14.438Z,1.61
2023-03-15T22:40:00.656Z,1.58
2023-03-15T22:42:46.918Z,1.21
2023-03-15T22:45:32.539Z,1.01
2023-03-15T22:48:18.076Z,1.48
2023-03-15T22:51:14.244Z,1.40
2023-03-15T22:53:59.997Z,0.01
2023-03-15T22:56:45.387Z,1.34
2023-03-15T22:59:30.765Z,0.02
2023-03-15T23:02:15.987Z,1.11
2023-03-15T23:05:01.677Z,-0.06
2023-03-15T23:07:47.682Z,1.27
2023-03-15T23:10:33.759Z,0.12
2023-03-15T23:13:19.313Z,1.30
2023-03-15T23:16:04.882Z,1.32
2023-03-15T23:18:50.430Z,1.29
2023-03-15T23:21:35.979Z,1.35
2023-03-15T23:24:22.693Z,1.32
2023-03-15T23:27:08.553Z,1.03
2023-03-15T23:29:55.217Z,-0.21
2023-03-15T23:32:42.057Z,1.33
2023-03-15T23:35:28.747Z,0.91
2023-03-15T23:38:14.433Z,1.28
2023-03-15T23:41:01.040Z,0.87
2023-03-15T23:43:46.698Z,0.22
2023-03-15T23:46:36.107Z,0.78
2023-03-15T23:49:26.508Z,1.28
2023-03-15T23:52:11.998Z,0.03
2023-03-15T23:54:57.283Z,1.10
2023-03-15T23:57:43.351Z,1.32
